Time;durP1;ratioP1;P1;durP2;ratioP2;P2;SDS_P1;SDS_P2;PMS_P1;PMS_P2;Temp;Humidity;BMP_temperature;BMP_pressure;BME280_temperature;BME280_humidity;BME280_pressure;Samples;Min_cycle;Max_cycle;Signal;HPM_P1;HPM_P2
2023/03/12 00:01:28;;;;;;;3.85;2.08;;;0.70;99.90;;;;;;5045427;28;20024;-65
2023/03/12 00:03:54;;;;;;;8.13;3.05;;;0.70;99.90;;;;;;5040037;28;20040;-63
2023/03/12 00:06:20;;;;;;;14.25;2.75;;;0.70;99.90;;;;;;5044377;28;20029;-66
2023/03/12 00:08:47;;;;;;;4.78;2.10;;;0.70;99.90;;;;;;5043613;28;20039;-67
2023/03/12 00:11:16;;;;;;;7.32;2.60;;;0.70;99.90;;;;;;5045783;28;20072;-66
2023/03/12 00:13:42;;;;;;;14.60;2.53;;;0.70;99.90;;;;;;5043500;28;20037;-64
2023/03/12 00:16:14;;;;;;;4.50;2.33;;;0.70;99.90;;;;;;5038763;28;20025;-64
2023/03/12 00:18:41;;;;;;;12.70;2.47;;;0.70;99.90;;;;;;5041194;28;20512;-65
2023/03/12 00:21:06;;;;;;;6.53;3.10;;;0.70;99.90;;;;;;5037286;28;20022;-65
2023/03/12 00:23:33;;;;;;;12.02;2.72;;;0.70;99.90;;;;;;5046382;28;20025;-65
2023/03/12 00:26:08;;;;;;;6.03;2.00;;;0.70;99.90;;;;;;5038629;28;20040;-65
2023/03/12 00:28:34;;;;;;;5.70;2.75;;;0.70;99.90;;;;;;5044938;28;20029;-64
2023/03/12 00:31:00;;;;;;;3.60;2.35;;;0.70;99.90;;;;;;5046275;28;20021;-65
2023/03/12 00:33:28;;;;;;;4.70;2.40;;;0.70;99.90;;;;;;5043247;28;20033;-64
2023/03/12 00:35:54;;;;;;;6.95;2.35;;;0.70;99.90;;;;;;5044802;28;20031;-65
2023/03/12 00:38:21;;;;;;;6.35;2.50;;;0.70;99.90;;;;;;5041471;28;20227;-64
2023/03/12 00:40:46;;;;;;;11.43;2.75;;;0.80;99.90;;;;;;5042403;28;20076;-65
2023/03/12 00:43:13;;;;;;;7.43;2.38;;;0.80;99.90;;;;;;5045352;28;20037;-67
2023/03/12 00:45:38;;;;;;;7.90;2.13;;;0.80;99.90;;;;;;5043346;28;20606;-64
2023/03/12 00:48:04;;;;;;;8.38;2.17;;;0.80;99.90;;;;;;5041836;28;20037;-65
2023/03/12 00:50:30;;;;;;;5.88;2.00;;;0.80;99.90;;;;;;5052731;28;20143;-63
2023/03/12 00:52:55;;;;;;;4.10;1.92;;;0.80;99.90;;;;;;5048405;28;20029;-66
2023/03/12 00:55:21;;;;;;;8.20;2.35;;;0.80;99.90;;;;;;5044756;28;20410;-65
2023/03/12 00:57:47;;;;;;;4.68;2.35;;;0.80;99.90;;;;;;5040651;28;20037;-64
2023/03/12 01:00:13;;;;;;;3.63;2.13;;;0.80;99.90;;;;;;5042930;28;20044;-66
2023/03/12 01:02:39;;;;;;;10.30;2.42;;;0.80;99.90;;;;;;5043624;28;20082;-64
2023/03/12 01:05:07;;;;;;;7.10;2.72;;;0.90;99.90;;;;;;5035549;28;20033;-65
2023/03/12 01:07:33;;;;;;;5.07;2.20;;;0.90;99.90;;;;;;5043043;28;20379;-64
2023/03/12 01:09:59;;;;;;;5.50;2.08;;;0.90;99.90;;;;;;5041414;28;20091;-66
2023/03/12 01:12:25;;;;;;;11.57;2.90;;;0.90;99.90;;;;;;5043783;28;20053;-63
2023/03/12 01:14:50;;;;;;;5.18;2.58;;;0.90;99.90;;;;;;5045446;28;20025;-67
2023/03/12 01:17:16;;;;;;;8.05;2.63;;;0.90;99.90;;;;;;5047186;28;20025;-64
2023/03/12 01:19:41;;;;;;;5.20;2.63;;;0.90;99.90;;;;;;5044375;28;20390;-66
2023/03/12 01:22:07;;;;;;;5.40;2.20;;;1.00;99.90;;;;;;5043918;28;20057;-64
2023/03/12 01:24:33;;;;;;;6.90;2.10;;;0.90;99.90;;;;;;5042337;28;20025;-65
2023/03/12 01:26:58;;;;;;;3.92;2.13;;;1.00;99.90;;;;;;5040943;28;20025;-65
2023/03/12 01:29:24;;;;;;;3.67;1.92;;;1.00;99.90;;;;;;5043791;28;20025;-66
2023/03/12 01:31:50;;;;;;;4.90;1.85;;;1.00;99.90;;;;;;5030780;28;20120;-65
2023/03/12 01:34:16;;;;;;;6.95;2.05;;;1.00;99.90;;;;;;5040414;28;20570;-66
2023/03/12 01:36:43;;;;;;;13.07;2.05;;;1.10;99.90;;;;;;5041490;28;20512;-65
2023/03/12 01:39:09;;;;;;;6.90;2.45;;;1.00;99.90;;;;;;5025933;28;20493;-64
2023/03/12 01:41:35;;;;;;;4.13;1.85;;;1.10;99.90;;;;;;5041460;28;20033;-65
2023/03/12 01:44:02;;;;;;;9.13;2.50;;;1.10;99.90;;;;;;5042560;28;20078;-65
2023/03/12 01:46:42;;;;;;;4.13;1.92;;;1.00;99.90;;;;;;5046640;28;20394;-65
2023/03/12 01:49:10;;;;;;;11.57;2.65;;;1.00;99.90;;;;;;5041879;28;20478;-65
2023/03/12 01:51:44;;;;;;;5.22;2.15;;;1.00;99.90;;;;;;5041448;28;20576;-64
2023/03/12 01:54:36;;;;;;;5.95;2.15;;;1.00;99.90;;;;;;5045192;28;20029;-67
2023/03/12 01:57:05;;;;;;;3.80;2.10;;;1.00;99.90;;;;;;5013180;28;20037;-64
2023/03/12 01:59:36;;;;;;;7.07;1.70;;;1.00;99.90;;;;;;5047648;28;20476;-66
2023/03/12 02:02:03;;;;;;;9.40;2.83;;;1.00;99.90;;;;;;5046552;28;20505;-65
2023/03/12 02:04:31;;;;;;;4.90;2.72;;;1.00;99.90;;;;;;5048583;28;20025;-64
2023/03/12 02:07:02;;;;;;;9.82;3.05;;;1.00;99.90;;;;;;5038638;28;20064;-64
2023/03/12 02:09:29;;;;;;;3.50;2.25;;;1.00;99.90;;;;;;5044893;28;20025;-64
2023/03/12 02:11:55;;;;;;;7.68;2.53;;;1.00;99.90;;;;;;5039212;28;20029;-63
2023/03/12 02:14:21;;;;;;;4.40;1.90;;;0.90;99.90;;;;;;5043848;28;20021;-66
2023/03/12 02:16:46;;;;;;;5.60;2.40;;;0.90;99.90;;;;;;5042562;28;20049;-66
2023/03/12 02:19:33;;;;;;;5.93;2.22;;;0.90;99.90;;;;;;5048420;28;20445;-65
2023/03/12 02:21:59;;;;;;;8.55;3.60;;;0.80;99.90;;;;;;5043725;28;20090;-66
2023/03/12 02:24:35;;;;;;;9.00;2.30;;;0.70;99.90;;;;;;5038270;28;20029;-64
2023/03/12 02:27:01;;;;;;;8.70;2.03;;;0.70;99.90;;;;;;5045468;28;20256;-64
2023/03/12 02:29:30;;;;;;;5.97;2.13;;;0.70;99.90;;;;;;5049383;28;20525;-63
2023/03/12 02:31:57;;;;;;;4.20;1.70;;;0.80;99.90;;;;;;5047319;28;20051;-64
2023/03/12 02:34:23;;;;;;;4.13;2.03;;;0.80;99.90;;;;;;5042949;28;20147;-65
2023/03/12 02:36:49;;;;;;;8.43;1.85;;;0.80;99.90;;;;;;5047949;28;20116;-65
2023/03/12 02:39:15;;;;;;;5.15;1.65;;;0.80;99.90;;;;;;5049745;28;20028;-65
2023/03/12 02:41:52;;;;;;;7.20;2.65;;;0.90;99.90;;;;;;5050195;28;20107;-64
2023/03/12 02:44:19;;;;;;;5.13;1.45;;;0.90;99.90;;;;;;5042425;28;20422;-63
2023/03/12 02:46:48;;;;;;;4.38;1.58;;;0.90;99.90;;;;;;5045648;28;20581;-65
2023/03/12 02:49:15;;;;;;;7.68;2.25;;;1.00;99.90;;;;;;5048151;28;20029;-64
2023/03/12 02:51:42;;;;;;;4.00;2.13;;;1.00;99.90;;;;;;5050211;28;20351;-64
2023/03/12 02:54:08;;;;;;;5.88;1.98;;;1.00;99.90;;;;;;5039530;28;20483;-65
2023/03/12 02:56:34;;;;;;;5.85;2.25;;;1.00;99.90;;;;;;5045371;28;20032;-66
2023/03/12 02:59:00;;;;;;;4.00;2.22;;;1.10;99.90;;;;;;5049481;28;20108;-62
2023/03/12 03:01:26;;;;;;;7.18;1.90;;;1.10;99.90;;;;;;5048795;28;20022;-64
2023/03/12 03:03:53;;;;;;;6.72;1.95;;;1.10;99.90;;;;;;5048514;28;20034;-65
2023/03/12 03:06:19;;;;;;;5.03;1.60;;;1.20;99.90;;;;;;5050305;28;20233;-65
2023/03/12 03:08:45;;;;;;;5.25;1.80;;;1.30;99.90;;;;;;5050656;28;20025;-66
2023/03/12 03:11:10;;;;;;;6.10;1.77;;;1.30;99.90;;;;;;5050201;28;20028;-65
2023/03/12 03:13:36;;;;;;;5.63;1.73;;;1.30;99.90;;;;;;5048813;28;20033;-63
2023/03/12 03:16:02;;;;;;;8.77;1.60;;;1.30;99.90;;;;;;5048524;28;20370;-65
2023/03/12 03:18:29;;;;;;;3.83;1.40;;;1.40;99.90;;;;;;5049795;28;20100;-65
2023/03/12 03:21:00;;;;;;;2.85;1.58;;;1.40;99.90;;;;;;5049786;28;20021;-65
2023/03/12 03:23:26;;;;;;;8.40;1.98;;;1.40;99.90;;;;;;5047319;28;20029;-66
2023/03/12 03:25:52;;;;;;;10.13;1.80;;;1.50;99.90;;;;;;5049639;28;20036;-65
2023/03/12 03:28:23;;;;;;;4.95;2.13;;;1.40;99.90;;;;;;5047335;28;20037;-67
2023/03/12 03:30:51;;;;;;;7.00;2.15;;;1.40;99.90;;;;;;5045772;28;20025;-65
2023/03/12 03:33:16;;;;;;;4.47;1.98;;;1.40;99.90;;;;;;5046575;28;20036;-66
2023/03/12 03:35:42;;;;;;;6.85;1.55;;;1.40;99.90;;;;;;5051656;28;20040;-65
2023/03/12 03:38:07;;;;;;;3.85;2.17;;;1.40;99.90;;;;;;5044859;28;20478;-64
2023/03/12 03:40:33;;;;;;;3.88;1.42;;;1.50;99.90;;;;;;5044294;28;20094;-66
2023/03/12 03:42:59;;;;;;;4.45;1.63;;;1.50;99.90;;;;;;5044382;28;20146;-65
2023/03/12 03:45:24;;;;;;;5.95;2.08;;;1.40;99.90;;;;;;5044428;28;20029;-64
2023/03/12 03:47:50;;;;;;;8.25;1.90;;;1.40;99.90;;;;;;5042630;28;20027;-65
2023/03/12 03:50:16;;;;;;;3.90;1.60;;;1.40;99.90;;;;;;5051000;28;20016;-64
2023/03/12 03:52:41;;;;;;;4.63;1.92;;;1.40;99.90;;;;;;5049284;28;20033;-64
2023/03/12 03:55:08;;;;;;;5.72;1.67;;;1.30;99.90;;;;;;5048672;28;20095;-65
2023/03/12 03:57:33;;;;;;;12.13;1.75;;;1.30;99.90;;;;;;5050687;28;20414;-65
2023/03/12 03:59:59;;;;;;;11.85;2.05;;;1.30;99.90;;;;;;5050401;28;20051;-64
2023/03/12 04:02:26;;;;;;;6.25;1.90;;;1.30;99.90;;;;;;5051466;28;20459;-64
2023/03/12 04:04:52;;;;;;;5.30;1.70;;;1.30;99.90;;;;;;5048521;28;20119;-66
2023/03/12 04:07:17;;;;;;;4.28;2.03;;;1.30;99.90;;;;;;5050609;28;20024;-64
2023/03/12 04:09:43;;;;;;;6.10;1.48;;;1.30;99.90;;;;;;5050522;28;20043;-66
2023/03/12 04:12:09;;;;;;;5.57;1.65;;;1.30;99.90;;;;;;5049874;28;20043;-64
2023/03/12 04:14:38;;;;;;;5.95;1.77;;;1.40;99.90;;;;;;5044731;28;20062;-64
2023/03/12 04:17:04;;;;;;;6.95;1.45;;;1.30;99.90;;;;;;5049973;28;20036;-65
2023/03/12 04:19:30;;;;;;;6.72;1.40;;;1.40;99.90;;;;;;5049339;28;20025;-66
2023/03/12 04:21:56;;;;;;;8.88;1.30;;;1.40;99.90;;;;;;5047791;28;20550;-67
2023/03/12 04:24:21;;;;;;;2.65;1.60;;;1.40;99.90;;;;;;5025573;28;20037;-64
2023/03/12 04:26:47;;;;;;;6.38;1.85;;;1.50;99.90;;;;;;5046401;28;20491;-67
2023/03/12 04:29:13;;;;;;;2.85;1.48;;;1.50;99.90;;;;;;5044002;28;20028;-64
2023/03/12 04:31:38;;;;;;;5.15;1.27;;;1.50;99.90;;;;;;5047630;28;20028;-65
2023/03/12 04:34:04;;;;;;;7.10;1.55;;;1.50;99.90;;;;;;5040263;28;20023;-67
2023/03/12 04:36:29;;;;;;;5.20;1.60;;;1.50;99.90;;;;;;5046996;28;20486;-65
2023/03/12 04:38:55;;;;;;;5.88;1.50;;;1.50;99.90;;;;;;5048651;28;20347;-65
2023/03/12 04:41:21;;;;;;;4.20;1.33;;;1.50;99.90;;;;;;5047393;28;20050;-65
2023/03/12 04:43:46;;;;;;;2.75;1.30;;;1.60;99.90;;;;;;5046067;28;20040;-64
2023/03/12 04:46:12;;;;;;;6.97;1.48;;;1.60;99.90;;;;;;5050922;28;20701;-66
2023/03/12 04:48:38;;;;;;;9.98;1.80;;;1.60;99.90;;;;;;5053612;28;20050;-64
2023/03/12 04:51:04;;;;;;;4.60;1.63;;;1.50;99.90;;;;;;5051925;28;20024;-64
2023/03/12 04:53:30;;;;;;;4.45;1.30;;;1.60;99.90;;;;;;5051332;28;20031;-67
2023/03/12 04:55:55;;;;;;;2.92;1.30;;;1.50;99.90;;;;;;5049620;28;20025;-67
2023/03/12 04:58:21;;;;;;;4.20;1.52;;;1.50;99.90;;;;;;5051162;28;20486;-65
2023/03/12 05:00:48;;;;;;;3.13;1.80;;;1.50;99.90;;;;;;5052856;28;20506;-65
2023/03/12 05:03:14;;;;;;;5.35;1.25;;;1.50;99.90;;;;;;5052772;28;20375;-63
2023/03/12 05:05:40;;;;;;;4.72;1.70;;;1.50;99.90;;;;;;5050480;28;20035;-67
2023/03/12 05:08:05;;;;;;;5.22;1.33;;;1.60;99.90;;;;;;5052892;28;20104;-66
2023/03/12 05:10:31;;;;;;;10.45;1.63;;;1.60;99.90;;;;;;5053242;28;20590;-65
2023/03/12 05:12:57;;;;;;;5.10;1.23;;;1.70;99.90;;;;;;5050620;28;20820;-65
2023/03/12 05:15:23;;;;;;;6.85;1.73;;;1.70;99.90;;;;;;5052699;28;20029;-64
2023/03/12 05:17:49;;;;;;;2.13;0.93;;;1.70;99.90;;;;;;5048574;28;20521;-62
2023/03/12 05:20:16;;;;;;;8.10;1.73;;;1.70;99.90;;;;;;5053087;28;20045;-65
2023/03/12 05:22:42;;;;;;;4.82;1.33;;;1.70;99.90;;;;;;5028767;28;20045;-65
2023/03/12 05:25:08;;;;;;;2.65;1.30;;;1.70;99.90;;;;;;5052121;28;20087;-64
2023/03/12 05:27:34;;;;;;;3.78;1.70;;;1.70;99.90;;;;;;5047166;28;20616;-65
2023/03/12 05:30:00;;;;;;;2.63;1.40;;;1.70;99.90;;;;;;5049635;28;20029;-66
2023/03/12 05:32:25;;;;;;;5.78;1.48;;;1.70;99.90;;;;;;5050279;28;20063;-64
2023/03/12 05:34:51;;;;;;;4.55;1.50;;;1.60;99.90;;;;;;5048116;28;20029;-66
2023/03/12 05:37:17;;;;;;;4.72;1.60;;;1.60;99.90;;;;;;5050843;28;20386;-64
2023/03/12 05:39:45;;;;;;;3.22;1.70;;;1.60;99.90;;;;;;5049683;28;20147;-66
2023/03/12 05:42:12;;;;;;;5.13;1.58;;;1.60;99.90;;;;;;5043067;28;20082;-64
2023/03/12 05:44:37;;;;;;;9.02;2.33;;;1.50;99.90;;;;;;5043048;28;20025;-66
2023/03/12 05:47:03;;;;;;;4.15;1.63;;;1.40;99.90;;;;;;5047916;28;20112;-65
2023/03/12 05:49:29;;;;;;;3.15;1.27;;;1.40;99.90;;;;;;5047043;28;20033;-65
2023/03/12 05:51:55;;;;;;;6.03;1.65;;;1.40;99.90;;;;;;5044047;28;20571;-67
2023/03/12 05:54:21;;;;;;;10.75;2.55;;;1.40;99.90;;;;;;5044277;28;20075;-65
2023/03/12 05:56:47;;;;;;;5.18;1.42;;;1.40;99.90;;;;;;5041540;28;20068;-62
2023/03/12 05:59:12;;;;;;;3.17;1.67;;;1.40;99.90;;;;;;5054249;28;20962;-65
2023/03/12 06:01:39;;;;;;;8.43;2.47;;;1.30;99.90;;;;;;5047840;28;20037;-65
2023/03/12 06:04:04;;;;;;;5.18;2.15;;;1.30;99.90;;;;;;5047702;28;20032;-65
2023/03/12 06:06:32;;;;;;;5.70;1.98;;;1.30;99.90;;;;;;5050932;28;20584;-68
2023/03/12 06:08:57;;;;;;;5.97;2.20;;;1.30;99.90;;;;;;5051471;28;20115;-65
2023/03/12 06:11:23;;;;;;;9.02;2.30;;;1.30;99.90;;;;;;5050635;28;20505;-64
2023/03/12 06:13:49;;;;;;;8.55;1.83;;;1.30;99.90;;;;;;5048934;28;20033;-64
2023/03/12 06:16:18;;;;;;;5.97;2.30;;;1.30;99.90;;;;;;5050370;28;20410;-66
2023/03/12 06:18:44;;;;;;;4.57;1.58;;;1.30;99.90;;;;;;5050294;28;20029;-65
2023/03/12 06:21:14;;;;;;;11.57;2.85;;;1.40;99.90;;;;;;5049990;28;20025;-64
2023/03/12 06:23:40;;;;;;;7.80;2.33;;;1.30;99.90;;;;;;5029145;28;20080;-66
2023/03/12 06:26:05;;;;;;;5.75;2.30;;;1.40;99.90;;;;;;5049627;28;20049;-64
2023/03/12 06:31:01;;;;;;;6.32;2.42;;;1.40;99.90;;;;;;5101917;22;20166;-64
2023/03/12 06:33:27;;;;;;;5.97;2.00;;;1.40;99.90;;;;;;5062498;28;20025;-67
2023/03/12 06:35:58;;;;;;;4.15;2.35;;;1.40;99.90;;;;;;5067214;28;20715;-67
2023/03/12 06:38:23;;;;;;;5.88;2.05;;;1.40;99.90;;;;;;5068383;28;20020;-67
2023/03/12 06:41:04;;;;;;;8.68;2.33;;;1.40;99.90;;;;;;5067537;28;20023;-67
2023/03/12 06:43:31;;;;;;;8.98;2.05;;;1.50;99.90;;;;;;5062347;28;20017;-66
2023/03/12 06:45:58;;;;;;;9.43;2.05;;;1.50;99.90;;;;;;5064682;28;20071;-65
2023/03/12 06:48:27;;;;;;;9.70;2.75;;;1.50;99.90;;;;;;5067595;28;20028;-65
2023/03/12 06:50:52;;;;;;;6.20;2.75;;;1.60;99.90;;;;;;5069047;28;20020;-65
2023/03/12 06:53:19;;;;;;;5.57;2.47;;;1.60;99.90;;;;;;5065082;28;20405;-63
2023/03/12 06:55:45;;;;;;;5.00;2.30;;;1.60;99.90;;;;;;5068174;28;20551;-65
2023/03/12 06:58:12;;;;;;;11.70;2.53;;;1.60;99.90;;;;;;5065033;28;20081;-67
2023/03/12 07:00:38;;;;;;;6.72;2.30;;;1.70;99.90;;;;;;5070182;28;20112;-66
2023/03/12 07:03:03;;;;;;;6.32;2.25;;;1.80;99.90;;;;;;5068724;28;20027;-66
2023/03/12 07:05:29;;;;;;;9.02;2.72;;;1.80;99.90;;;;;;5068289;28;20032;-66
2023/03/12 07:07:55;;;;;;;5.40;1.90;;;1.90;99.90;;;;;;5066386;28;20032;-64
2023/03/12 07:10:21;;;;;;;5.28;2.08;;;2.00;99.90;;;;;;5068947;28;20073;-67
2023/03/12 07:12:47;;;;;;;5.15;2.65;;;2.10;99.90;;;;;;5068739;28;20052;-66
2023/03/12 07:15:12;;;;;;;7.10;2.35;;;2.20;99.90;;;;;;5067256;28;20036;-66
2023/03/12 07:17:38;;;;;;;8.07;2.10;;;2.20;99.90;;;;;;5070644;28;20032;-65
2023/03/12 07:20:04;;;;;;;14.77;2.30;;;2.20;99.90;;;;;;5069023;28;20020;-66
2023/03/12 07:22:30;;;;;;;5.45;2.35;;;2.10;99.90;;;;;;5050685;28;20108;-66
2023/03/12 07:24:56;;;;;;;5.55;2.08;;;2.20;99.90;;;;;;5066245;28;20162;-66
2023/03/12 07:27:21;;;;;;;5.22;2.28;;;2.20;99.90;;;;;;5068333;28;20021;-67
2023/03/12 07:29:47;;;;;;;6.38;1.90;;;2.20;99.90;;;;;;5067017;28;20170;-66
2023/03/12 07:32:12;;;;;;;9.88;2.33;;;2.20;99.90;;;;;;5068280;28;20037;-66
2023/03/12 07:34:38;;;;;;;10.80;1.60;;;2.20;99.90;;;;;;5067502;28;20032;-65
2023/03/12 07:37:04;;;;;;;3.17;1.98;;;2.30;99.90;;;;;;5069812;28;20497;-64
2023/03/12 07:39:30;;;;;;;7.63;2.10;;;2.30;99.90;;;;;;5060474;28;20367;-65
2023/03/12 07:41:56;;;;;;;6.53;2.00;;;2.30;99.90;;;;;;5061790;28;20138;-67
2023/03/12 07:44:21;;;;;;;9.07;1.92;;;2.30;99.90;;;;;;5063733;28;20158;-67
2023/03/12 07:46:47;;;;;;;7.00;2.25;;;2.30;99.90;;;;;;5063708;28;20055;-67
2023/03/12 07:49:13;;;;;;;7.85;2.05;;;2.30;99.90;;;;;;5059315;28;20044;-65
2023/03/12 07:51:39;;;;;;;4.68;2.15;;;2.30;99.90;;;;;;5065632;28;20044;-65
2023/03/12 07:54:04;;;;;;;7.13;1.73;;;2.30;99.90;;;;;;5064406;28;20528;-66
2023/03/12 07:56:30;;;;;;;3.00;1.88;;;2.40;99.90;;;;;;5062625;28;20398;-66
2023/03/12 07:58:56;;;;;;;6.10;2.20;;;2.50;99.90;;;;;;5063589;28;20028;-66
2023/03/12 08:01:22;;;;;;;6.47;1.90;;;2.60;99.90;;;;;;5075236;28;20024;-64
2023/03/12 08:03:47;;;;;;;4.75;1.88;;;2.60;99.90;;;;;;5065062;28;20032;-65
2023/03/12 08:06:13;;;;;;;4.47;1.98;;;2.60;99.90;;;;;;5066761;28;20040;-67
2023/03/12 08:08:41;;;;;;;5.78;3.08;;;2.60;99.90;;;;;;5068597;28;20071;-66
2023/03/12 08:11:08;;;;;;;4.30;1.80;;;2.70;99.90;;;;;;5066378;28;20436;-67
2023/03/12 08:13:34;;;;;;;7.90;2.20;;;2.70;99.90;;;;;;5065723;28;20401;-66
2023/03/12 08:15:59;;;;;;;4.53;2.67;;;2.80;99.90;;;;;;5062012;28;20490;-65
2023/03/12 08:18:26;;;;;;;9.10;2.55;;;2.80;99.90;;;;;;5081415;28;20024;-66
2023/03/12 08:20:53;;;;;;;7.63;1.85;;;2.80;99.90;;;;;;5083955;28;20031;-66
2023/03/12 08:23:20;;;;;;;6.95;2.13;;;2.80;99.90;;;;;;5049236;28;20421;-65
2023/03/12 08:25:47;;;;;;;9.32;2.40;;;2.90;99.90;;;;;;5065504;28;21775;-67
2023/03/12 08:28:14;;;;;;;4.90;1.60;;;2.90;99.90;;;;;;5065400;28;20036;-65
2023/03/12 08:30:48;;;;;;;5.75;2.22;;;3.10;99.90;;;;;;5065837;28;20044;-67
2023/03/12 08:33:13;;;;;;;9.07;3.17;;;3.20;99.90;;;;;;5066081;28;20025;-66
2023/03/12 08:35:39;;;;;;;5.20;2.10;;;3.10;99.90;;;;;;5067017;28;20036;-67
2023/03/12 08:38:05;;;;;;;7.10;3.60;;;3.30;99.90;;;;;;5069393;28;20040;-64
2023/03/12 08:40:31;;;;;;;8.07;2.20;;;3.20;99.90;;;;;;5063366;28;20028;-67
2023/03/12 08:42:56;;;;;;;5.32;2.30;;;3.30;99.90;;;;;;5067405;28;20027;-66
2023/03/12 08:45:22;;;;;;;9.07;1.83;;;3.30;99.90;;;;;;5065048;28;20024;-67
2023/03/12 08:47:48;;;;;;;6.85;2.30;;;3.30;99.90;;;;;;5064890;28;20645;-65
2023/03/12 08:50:15;;;;;;;5.18;1.83;;;3.40;99.90;;;;;;5066207;28;20600;-62
2023/03/12 08:52:42;;;;;;;3.70;2.13;;;3.50;99.90;;;;;;5067171;28;20032;-65
2023/03/12 08:55:09;;;;;;;4.22;2.15;;;3.50;99.90;;;;;;5066379;28;20055;-63
2023/03/12 08:57:35;;;;;;;4.88;1.98;;;3.60;99.90;;;;;;5065634;28;20047;-64
2023/03/12 09:00:00;;;;;;;5.95;2.10;;;3.70;99.90;;;;;;5067143;28;20478;-63
2023/03/12 09:02:27;;;;;;;7.22;2.20;;;3.80;99.90;;;;;;5066749;28;20020;-63
2023/03/12 09:04:53;;;;;;;4.88;1.95;;;3.80;99.90;;;;;;5067962;28;20389;-64
2023/03/12 09:07:18;;;;;;;5.97;2.30;;;3.90;99.90;;;;;;5066880;28;20039;-63
2023/03/12 09:09:44;;;;;;;4.20;2.13;;;3.80;99.90;;;;;;5067170;28;20763;-65
2023/03/12 09:12:10;;;;;;;7.15;2.45;;;4.00;99.90;;;;;;5067982;28;20024;-64
2023/03/12 09:14:36;;;;;;;5.13;2.67;;;4.20;99.90;;;;;;5077310;28;20029;-65
2023/03/12 09:17:02;;;;;;;3.53;1.63;;;4.20;99.90;;;;;;5065479;28;20032;-65
2023/03/12 09:19:28;;;;;;;6.00;2.42;;;4.30;99.90;;;;;;5069737;28;20024;-64
2023/03/12 09:21:53;;;;;;;7.88;2.70;;;4.40;99.90;;;;;;5067210;28;20029;-64
2023/03/12 09:24:19;;;;;;;4.60;2.10;;;4.30;99.90;;;;;;5041851;28;20612;-64
2023/03/12 09:26:45;;;;;;;4.70;2.33;;;4.40;99.90;;;;;;5066762;28;20036;-64
2023/03/12 09:29:11;;;;;;;9.63;3.45;;;4.40;99.90;;;;;;5064560;28;20025;-65
2023/03/12 09:31:36;;;;;;;4.65;2.30;;;4.30;99.90;;;;;;5067240;28;20107;-65
2023/03/12 09:34:02;;;;;;;3.83;1.60;;;4.30;99.90;;;;;;5065520;28;20033;-64
2023/03/12 09:36:28;;;;;;;13.13;2.63;;;4.30;99.90;;;;;;5064500;28;20071;-64
2023/03/12 09:38:54;;;;;;;6.10;2.25;;;4.20;99.90;;;;;;5063319;28;20059;-64
2023/03/12 09:41:26;;;;;;;7.40;2.95;;;4.30;99.90;;;;;;5065982;28;21934;-64
2023/03/12 09:43:58;;;;;;;11.40;2.38;;;4.30;99.90;;;;;;5064281;28;20108;-63
2023/03/12 09:46:29;;;;;;;16.27;6.10;;;4.40;99.90;;;;;;5064051;28;20025;-63
2023/03/12 09:48:57;;;;;;;7.53;3.95;;;4.30;99.90;;;;;;5064048;28;20505;-65
2023/03/12 09:51:34;;;;;;;6.22;3.30;;;4.40;99.90;;;;;;5065161;28;20059;-64
2023/03/12 09:54:06;;;;;;;35.45;15.15;;;4.30;99.90;;;;;;5065795;28;20035;-62
2023/03/12 09:56:32;;;;;;;28.98;13.43;;;4.40;99.90;;;;;;5066111;28;20089;-65
2023/03/12 09:58:58;;;;;;;27.92;13.23;;;4.50;99.90;;;;;;5070489;28;20024;-65
2023/03/12 10:01:27;;;;;;;9.23;3.95;;;4.50;99.90;;;;;;5072326;28;20043;-64
2023/03/12 10:04:32;;;;;;;8.63;3.70;;;4.50;99.90;;;;;;5067185;28;20055;-63
2023/03/12 10:07:10;;;;;;;5.72;3.28;;;4.50;99.90;;;;;;5069701;28;20106;-64
2023/03/12 10:09:46;;;;;;;7.88;4.40;;;4.60;99.90;;;;;;5083776;28;20021;-63
2023/03/12 10:12:31;;;;;;;6.63;3.22;;;4.60;99.90;;;;;;5063966;28;20036;-63
2023/03/12 10:15:00;;;;;;;7.15;4.55;;;4.70;99.90;;;;;;5065184;28;20028;-64
2023/03/12 10:17:42;;;;;;;6.13;4.35;;;4.60;99.90;;;;;;5060367;28;20043;-65
2023/03/12 10:20:32;;;;;;;8.70;4.05;;;4.70;99.90;;;;;;5070447;28;20036;-65
2023/03/12 10:23:20;;;;;;;15.70;8.10;;;4.70;99.90;;;;;;5080051;28;20037;-65
2023/03/12 10:25:51;;;;;;;13.63;5.53;;;4.90;99.90;;;;;;5042447;28;20037;-65
2023/03/12 10:28:24;;;;;;;10.35;3.90;;;5.00;99.90;;;;;;5070232;28;20090;-67
2023/03/12 10:30:58;;;;;;;6.75;3.75;;;5.00;99.90;;;;;;5064620;28;20103;-67
2023/03/12 10:33:36;;;;;;;5.30;3.63;;;5.10;99.90;;;;;;5068866;28;20052;-67
2023/03/12 10:36:19;;;;;;;7.00;4.90;;;5.00;99.90;;;;;;5068662;28;20025;-66
2023/03/12 10:38:47;;;;;;;5.38;3.40;;;5.10;99.90;;;;;;5070772;28;20024;-65
2023/03/12 10:41:29;;;;;;;7.82;3.38;;;5.30;99.90;;;;;;5070202;28;20052;-67
2023/03/12 10:44:06;;;;;;;6.25;3.45;;;5.30;99.90;;;;;;5064258;28;20153;-66
2023/03/12 10:46:51;;;;;;;8.95;3.28;;;5.40;99.90;;;;;;5068250;28;20031;-66
2023/03/12 10:49:23;;;;;;;5.30;3.20;;;5.30;99.90;;;;;;5065487;28;20119;-64
2023/03/12 10:52:15;;;;;;;4.30;2.53;;;5.30;99.90;;;;;;5067114;28;20392;-64
2023/03/12 10:54:43;;;;;;;13.18;6.38;;;5.40;99.90;;;;;;5066735;28;20059;-67
2023/03/12 10:57:10;;;;;;;7.80;3.85;;;5.30;99.90;;;;;;5071318;28;20020;-66
2023/03/12 10:59:44;;;;;;;6.50;3.65;;;5.20;99.90;;;;;;5069296;28;20397;-65
2023/03/12 11:02:27;;;;;;;;;;;5.20;99.90;;;;;;5069407;28;20100;-65
2023/03/12 11:04:53;;;;;;;5.35;3.45;;;5.20;99.90;;;;;;5076536;28;19939;-66
2023/03/12 11:07:32;;;;;;;7.63;4.18;;;5.20;99.90;;;;;;5069837;28;20055;-66
2023/03/12 11:10:07;;;;;;;8.57;4.07;;;5.20;99.90;;;;;;5069649;28;20020;-67
2023/03/12 11:12:35;;;;;;;6.45;4.13;;;5.20;99.90;;;;;;5060537;28;20063;-65
2023/03/12 11:15:22;;;;;;;7.32;3.78;;;5.20;99.90;;;;;;5068183;28;20446;-65
2023/03/12 11:17:49;;;;;;;9.60;3.70;;;5.30;99.90;;;;;;5069433;28;20024;-65
2023/03/12 11:20:25;;;;;;;13.65;6.28;;;5.40;99.90;;;;;;5067240;28;20055;-65
2023/03/12 11:22:50;;;;;;;20.35;10.13;;;5.40;99.90;;;;;;5066259;28;20044;-66
2023/03/12 11:25:34;;;;;;;17.08;9.88;;;5.40;99.90;;;;;;5045274;28;20080;-67
2023/03/12 11:28:01;;;;;;;11.63;6.82;;;5.40;99.90;;;;;;5066347;28;20028;-66
2023/03/12 11:30:39;;;;;;;9.90;4.75;;;5.50;99.90;;;;;;5061442;28;20048;-66
2023/03/12 11:33:05;;;;;;;6.90;3.47;;;5.60;99.90;;;;;;5069527;28;20028;-65
2023/03/12 11:35:48;;;;;;;7.65;3.83;;;5.60;99.90;;;;;;5068987;28;20466;-66
2023/03/12 11:38:19;;;;;;;9.20;4.20;;;5.70;99.90;;;;;;5067170;28;20502;-67
2023/03/12 11:41:21;;;;;;;8.90;4.28;;;5.70;99.90;;;;;;5068066;28;20046;-65
2023/03/12 11:43:52;;;;;;;27.77;12.68;;;5.70;99.90;;;;;;5062996;28;20016;-67
2023/03/12 11:46:37;;;;;;;13.75;7.75;;;5.70;99.90;;;;;;5062159;28;20105;-66
2023/03/12 11:49:48;;;;;;;6.60;4.32;;;5.80;99.90;;;;;;5065742;28;20035;-66
2023/03/12 11:52:31;;;;;;;7.35;4.60;;;5.90;99.90;;;;;;5068124;28;20490;-66
2023/03/12 11:54:56;;;;;;;14.43;6.53;;;5.90;99.90;;;;;;5067985;28;20086;-65
2023/03/12 11:57:26;;;;;;;13.75;9.27;;;6.00;99.90;;;;;;5065550;28;20021;-66
2023/03/12 11:59:51;;;;;;;11.77;6.00;;;6.00;99.90;;;;;;5068320;28;20021;-67
2023/03/12 12:02:17;;;;;;;7.13;4.80;;;6.10;99.90;;;;;;5061517;28;20504;-64
2023/03/12 12:05:10;;;;;;;7.68;5.43;;;6.10;99.90;;;;;;5088080;28;20027;-66
2023/03/12 12:07:44;;;;;;;13.63;6.35;;;6.20;99.90;;;;;;5072825;28;20048;-66
2023/03/12 12:10:38;;;;;;;4.68;3.58;;;6.40;99.90;;;;;;5067108;28;20026;-66
2023/03/12 12:13:22;;;;;;;6.18;3.58;;;6.60;99.90;;;;;;5063573;28;20032;-66
2023/03/12 12:16:06;;;;;;;12.77;3.90;;;6.80;99.90;;;;;;5061120;28;20393;-66
2023/03/12 12:19:10;;;;;;;5.45;3.25;;;6.90;99.90;;;;;;5068440;28;20025;-65
2023/03/12 12:21:56;;;;;;;10.75;4.78;;;6.90;99.90;;;;;;5060795;28;20032;-65
2023/03/12 12:24:31;;;;;;;9.70;5.22;;;7.00;99.90;;;;;;5075797;28;20055;-66
2023/03/12 12:27:26;;;;;;;6.93;3.95;;;7.20;99.90;;;;;;5068856;28;20064;-66
2023/03/12 12:30:09;;;;;;;8.95;4.38;;;7.30;99.90;;;;;;5064868;28;20115;-65
2023/03/12 12:32:59;;;;;;;7.40;3.95;;;7.30;99.90;;;;;;5063582;28;20026;-66
2023/03/12 12:35:36;;;;;;;7.45;4.55;;;7.30;99.90;;;;;;5067143;28;20414;-65
2023/03/12 12:38:19;;;;;;;11.57;4.18;;;7.20;99.90;;;;;;5066882;28;20382;-66
2023/03/12 12:40:54;;;;;;;9.73;4.53;;;7.30;99.90;;;;;;5063261;28;20025;-65
2023/03/12 12:43:22;;;;;;;8.40;4.53;;;7.60;99.90;;;;;;5065473;28;20029;-65
2023/03/12 12:45:51;;;;;;;6.40;4.07;;;7.80;99.90;;;;;;5066616;28;20095;-65
2023/03/12 12:48:22;;;;;;;7.40;4.47;;;8.20;99.90;;;;;;5067204;28;20021;-65
2023/03/12 12:50:50;;;;;;;7.22;4.32;;;8.50;99.90;;;;;;5069450;28;20028;-66
2023/03/12 12:53:37;;;;;;;10.65;4.65;;;8.80;99.90;;;;;;5067432;28;20037;-65
2023/03/12 12:56:14;;;;;;;9.30;3.90;;;9.20;99.90;;;;;;5064673;28;20074;-65
2023/03/12 12:58:52;;;;;;;6.20;3.95;;;9.50;99.90;;;;;;5060332;28;20021;-65
2023/03/12 13:01:18;;;;;;;12.25;4.88;;;9.70;99.90;;;;;;5080811;28;20423;-65
2023/03/12 13:03:45;;;;;;;13.80;5.80;;;9.70;99.90;;;;;;5064446;28;20028;-64
2023/03/12 13:06:11;;;;;;;11.93;5.53;;;9.80;99.90;;;;;;5069676;28;20033;-65
2023/03/12 13:08:41;;;;;;;17.02;7.10;;;9.90;99.90;;;;;;5073849;28;20040;-66